Main page
METAR-TAF:

METAR-TAF

Airports :

Maragheh, Iran

latitude: 37-20-55N, longitude: 046-07-35E, elevation: 1340 m

Current weather observation

The report was made 1 hour and 6 minutes ago, at 05:00 UTC
Wind 14 kt from the East
Temperature 4°C
Humidity 75%
Pressure 1023 hPa
Visibility 10 km or more
Few clouds at a height of 3500 ft
Broken clouds at a height of 10000 ft

METAR: OITM 060500Z 10014KT 9999 FEW035 BKN100 04/M00 Q1023

Time: 09:36 (06:06 UTC)


TAF: missing

Weather observations and forecasts of more than 4000 airports (METAR and TAF reports).

The available stations are represented by yellow and red dots on the map.

Hover mouse over dot to see the name of the station.

Then click to see weather observations and forecasts.

To change the map : click on the green buttons with a black cross to zoom in, on the green button with a dash to zoom out, or on the green arrows for adjacent maps.


METAR-TAF: